Ocean Beaut — WDD7485 — position and weather

sailwx.info

Track history (hours):
 
Tides and Currents Weather Stations Pressure Air Temp Water Temp Dewpoint Dewpoint Depression Visibility Wind Speed Wind Dir Waves Ship Positions

Ocean Beaut

Owner: John Moreland Fishing Inc., Astoria, OR. More information available from US FCC via Universal Licensing System.

Last reported at 2017-Sep-25 20:28 UTC. Time now 2017-Sep-25 20:34 UTC.
Position N 46°12' W 123°48'.

Length 20 m.

Type: Fishing. MMSI: 367187080.

Date/timePositionNaut miles runAvg speedWind from/ knotsBaromVisibWave heightAir tempDewpointWater temp
2017-Sep-25 20:28N 46°12' W 123°48'0 0.0
2017-Sep-25 19:58N 46°12' W 123°48'0 0.0
2017-Sep-25 19:28N 46°12' W 123°48'0 0.0
2017-Sep-25 18:58N 46°12' W 123°48'0 0.0
2017-Sep-25 18:28N 46°12' W 123°48'0 0.0
2017-Sep-25 17:58N 46°12' W 123°48'0 0.5
2017-Sep-25 17:30N 46°12' W 123°48'2 4.2
2017-Sep-25 16:59N 46°11' W 123°51'0 0.0
2017-Sep-25 16:29N 46°11' W 123°51'0 0.0
2017-Sep-25 15:59N 46°11' W 123°51'0 0.0
2017-Sep-25 15:29N 46°11' W 123°51'0 0.0
2017-Sep-25 14:59N 46°11' W 123°51'0 0.0
2017-Sep-25 14:29N 46°11' W 123°51'0 0.0
2017-Sep-25 13:59N 46°11' W 123°51'0 0.0
2017-Sep-25 13:29N 46°11' W 123°51'0 0.0
2017-Sep-25 12:59N 46°11' W 123°51'0 0.0
2017-Sep-25 12:23N 46°11' W 123°51'0 0.0
2017-Sep-25 11:56N 46°11' W 123°51'0 0.0
2017-Sep-25 11:29N 46°11' W 123°51'0 0.0
2017-Sep-25 10:59N 46°11' W 123°51'0 0.0
2017-Sep-25 10:29N 46°11' W 123°51'0 0.0
2017-Sep-25 09:56N 46°11' W 123°51'0 0.0
2017-Sep-25 09:29N 46°11' W 123°51'0 0.0
2017-Sep-25 08:56N 46°11' W 123°51'0 0.0
2017-Sep-25 08:14N 46°11' W 123°51'0 0.0
2017-Sep-25 07:53N 46°11' W 123°51'0 0.0
2017-Sep-25 07:29N 46°11' W 123°51'0 0.0
2017-Sep-25 06:59N 46°11' W 123°51'0 0.0
2017-Sep-25 06:26N 46°11' W 123°51'0 0.0
2017-Sep-25 05:59N 46°11' W 123°51'0 0.0
2017-Sep-25 05:29N 46°11' W 123°51'0 0.0
2017-Sep-25 04:59N 46°11' W 123°51'0 0.0
2017-Sep-25 04:29N 46°11' W 123°51'0 0.0
2017-Sep-25 03:41N 46°11' W 123°51'0 0.0
2017-Sep-25 03:29N 46°11' W 123°51'0 0.0
2017-Sep-25 02:59N 46°11' W 123°51'0 0.0
2017-Sep-25 02:14N 46°11' W 123°51'0 0.0
2017-Sep-25 01:20N 46°11' W 123°51'0 0.0
2017-Sep-25 00:59N 46°11' W 123°51'0 0.0
2017-Sep-25 00:29N 46°11' W 123°51'0 0.0
2017-Sep-24 23:59N 46°11' W 123°51'1 3.2
2017-Sep-24 23:30N 46°11' W 123°54'3 6.5
2017-Sep-24 23:00N 46°13' W 123°58'4 8.2
2017-Sep-24 22:30N 46°15' W 124°03'4 7.2
2017-Sep-24 22:00N 46°14' W 124°07'4 7.2
2017-Sep-24 21:30N 46°11' W 124°11'3 6.5
2017-Sep-24 21:00N 46°10' W 124°15'3 6.4
2017-Sep-24 20:30N 46°08' W 124°19'3 5.4
2017-Sep-24 20:00N 46°06' W 124°22'3 5.5
2017-Sep-24 19:24N 46°03' W 124°25'2 4.9
2017-Sep-24 19:00N 46°02' W 124°27'2 4.7
2017-Sep-24 18:30N 46°01' W 124°30'1 1.4
2017-Sep-24 18:00N 46°01' W 124°30'1 2.6
2017-Sep-24 17:30N 46°02' W 124°31'1 2.6
2017-Sep-24 17:00N 46°04' W 124°31'2 3.1
2017-Sep-24 16:30N 46°05' W 124°32'1 2.1
2017-Sep-24 16:00N 46°06' W 124°32'1 2.6
2017-Sep-24 15:30N 46°07' W 124°32'1 2.7
2017-Sep-24 15:00N 46°09' W 124°32'2 4.4
2017-Sep-24 14:30N 46°11' W 124°33'4 2.5
2017-Sep-24 12:44N 46°15' W 124°36'4 2.1
2017-Sep-24 10:55N 46°17' W 124°40'1 1.6
2017-Sep-24 10:29N 46°18' W 124°40'1 1.6
2017-Sep-24 09:49N 46°19' W 124°39'1 2.3
2017-Sep-24 09:30N 46°20' W 124°39'1 1.4
2017-Sep-24 09:01N 46°20' W 124°39'2 3.0
2017-Sep-24 08:30N 46°22' W 124°38'0 0.6
2017-Sep-24 08:00N 46°22' W 124°38'0 0.2
2017-Sep-24 07:30N 46°22' W 124°38'0 0.7
2017-Sep-24 07:00N 46°22' W 124°38'1 1.7
2017-Sep-24 06:27N 46°22' W 124°39'0 0.5
2017-Sep-24 05:54N 46°23' W 124°39'2 4.6
2017-Sep-24 05:30N 46°24' W 124°40'14 5.5
2017-Sep-24 02:55N 46°38' W 124°45'33 0.7
2017-Sep-22 02:00N 46°06' W 124°32'1 2.6
2017-Sep-22 01:30N 46°08' W 124°32'1 2.6
2017-Sep-22 00:59N 46°09' W 124°32'2 3.9
2017-Sep-22 00:28N 46°10' W 124°30'4 7.9
2017-Sep-22 00:00N 46°11' W 124°25'4 7.8
2017-Sep-21 23:30N 46°12' W 124°19'4 7.7
2017-Sep-21 23:00N 46°13' W 124°14'4 7.8
2017-Sep-21 22:30N 46°14' W 124°09'4 8.4
2017-Sep-21 22:00N 46°16' W 124°03'3 6.7
2017-Sep-21 21:30N 46°14' W 123°59'3 6.9
2017-Sep-21 21:00N 46°12' W 123°55'3 4.9
2017-Sep-21 20:29N 46°11' W 123°51'0 0.0
2017-Sep-21 19:59N 46°11' W 123°51'0 0.0
2017-Sep-21 19:29N 46°11' W 123°51'1 1.9
2017-Sep-21 18:59N 46°12' W 123°50'1 1.4
2017-Sep-21 18:00N 46°12' W 123°48'  
Track history (hours):
 
Tides and Currents Weather Stations Pressure Air Temp Water Temp Dewpoint Dewpoint Depression Visibility Wind Speed Wind Dir Waves Ship Positions

Ocean Beaut

Owner: John Moreland Fishing Inc., Astoria, OR. More information available from US FCC via Universal Licensing System.

Last reported at 2017-Sep-25 20:28 UTC. Time now 2017-Sep-25 20:34 UTC.
Position N 46°12' W 123°48'.

Length 20 m.

Type: Fishing. MMSI: 367187080.

Date/timePositionNaut miles runAvg speedWind from/ knotsBaromVisibWave heightAir tempDewpointWater temp
2017-Sep-25 20:28N 46°12' W 123°48'0 0.0
2017-Sep-25 19:58N 46°12' W 123°48'0 0.0
2017-Sep-25 19:28N 46°12' W 123°48'0 0.0
2017-Sep-25 18:58N 46°12' W 123°48'0 0.0
2017-Sep-25 18:28N 46°12' W 123°48'0 0.0
2017-Sep-25 17:58N 46°12' W 123°48'0 0.5
2017-Sep-25 17:30N 46°12' W 123°48'2 4.2
2017-Sep-25 16:59N 46°11' W 123°51'0 0.0
2017-Sep-25 16:29N 46°11' W 123°51'0 0.0
2017-Sep-25 15:59N 46°11' W 123°51'0 0.0
2017-Sep-25 15:29N 46°11' W 123°51'0 0.0
2017-Sep-25 14:59N 46°11' W 123°51'0 0.0
2017-Sep-25 14:29N 46°11' W 123°51'0 0.0
2017-Sep-25 13:59N 46°11' W 123°51'0 0.0
2017-Sep-25 13:29N 46°11' W 123°51'0 0.0
2017-Sep-25 12:59N 46°11' W 123°51'0 0.0
2017-Sep-25 12:23N 46°11' W 123°51'0 0.0
2017-Sep-25 11:56N 46°11' W 123°51'0 0.0
2017-Sep-25 11:29N 46°11' W 123°51'0 0.0
2017-Sep-25 10:59N 46°11' W 123°51'0 0.0
2017-Sep-25 10:29N 46°11' W 123°51'0 0.0
2017-Sep-25 09:56N 46°11' W 123°51'0 0.0
2017-Sep-25 09:29N 46°11' W 123°51'0 0.0
2017-Sep-25 08:56N 46°11' W 123°51'0 0.0
2017-Sep-25 08:14N 46°11' W 123°51'0 0.0
2017-Sep-25 07:53N 46°11' W 123°51'0 0.0
2017-Sep-25 07:29N 46°11' W 123°51'0 0.0
2017-Sep-25 06:59N 46°11' W 123°51'0 0.0
2017-Sep-25 06:26N 46°11' W 123°51'0 0.0
2017-Sep-25 05:59N 46°11' W 123°51'0 0.0
2017-Sep-25 05:29N 46°11' W 123°51'0 0.0
2017-Sep-25 04:59N 46°11' W 123°51'0 0.0
2017-Sep-25 04:29N 46°11' W 123°51'0 0.0
2017-Sep-25 03:41N 46°11' W 123°51'0 0.0
2017-Sep-25 03:29N 46°11' W 123°51'0 0.0
2017-Sep-25 02:59N 46°11' W 123°51'0 0.0
2017-Sep-25 02:14N 46°11' W 123°51'0 0.0
2017-Sep-25 01:20N 46°11' W 123°51'0 0.0
2017-Sep-25 00:59N 46°11' W 123°51'0 0.0
2017-Sep-25 00:29N 46°11' W 123°51'0 0.0
2017-Sep-24 23:59N 46°11' W 123°51'1 3.2
2017-Sep-24 23:30N 46°11' W 123°54'3 6.5
2017-Sep-24 23:00N 46°13' W 123°58'4 8.2
2017-Sep-24 22:30N 46°15' W 124°03'4 7.2
2017-Sep-24 22:00N 46°14' W 124°07'4 7.2
2017-Sep-24 21:30N 46°11' W 124°11'3 6.5
2017-Sep-24 21:00N 46°10' W 124°15'3 6.4
2017-Sep-24 20:30N 46°08' W 124°19'3 5.4
2017-Sep-24 20:00N 46°06' W 124°22'3 5.5
2017-Sep-24 19:24N 46°03' W 124°25'2 4.9
2017-Sep-24 19:00N 46°02' W 124°27'2 4.7
2017-Sep-24 18:30N 46°01' W 124°30'1 1.4
2017-Sep-24 18:00N 46°01' W 124°30'1 2.6
2017-Sep-24 17:30N 46°02' W 124°31'1 2.6
2017-Sep-24 17:00N 46°04' W 124°31'2 3.1
2017-Sep-24 16:30N 46°05' W 124°32'1 2.1
2017-Sep-24 16:00N 46°06' W 124°32'1 2.6
2017-Sep-24 15:30N 46°07' W 124°32'1 2.7
2017-Sep-24 15:00N 46°09' W 124°32'2 4.4
2017-Sep-24 14:30N 46°11' W 124°33'4 2.5
2017-Sep-24 12:44N 46°15' W 124°36'4 2.1
2017-Sep-24 10:55N 46°17' W 124°40'1 1.6
2017-Sep-24 10:29N 46°18' W 124°40'1 1.6
2017-Sep-24 09:49N 46°19' W 124°39'1 2.3
2017-Sep-24 09:30N 46°20' W 124°39'1 1.4
2017-Sep-24 09:01N 46°20' W 124°39'2 3.0
2017-Sep-24 08:30N 46°22' W 124°38'0 0.6
2017-Sep-24 08:00N 46°22' W 124°38'0 0.2
2017-Sep-24 07:30N 46°22' W 124°38'0 0.7
2017-Sep-24 07:00N 46°22' W 124°38'1 1.7
2017-Sep-24 06:27N 46°22' W 124°39'0 0.5
2017-Sep-24 05:54N 46°23' W 124°39'2 4.6
2017-Sep-24 05:30N 46°24' W 124°40'14 5.5
2017-Sep-24 02:55N 46°38' W 124°45'33 0.7
2017-Sep-22 02:00N 46°06' W 124°32'1 2.6
2017-Sep-22 01:30N 46°08' W 124°32'1 2.6
2017-Sep-22 00:59N 46°09' W 124°32'2 3.9
2017-Sep-22 00:28N 46°10' W 124°30'4 7.9
2017-Sep-22 00:00N 46°11' W 124°25'4 7.8
2017-Sep-21 23:30N 46°12' W 124°19'4 7.7
2017-Sep-21 23:00N 46°13' W 124°14'4 7.8
2017-Sep-21 22:30N 46°14' W 124°09'4 8.4
2017-Sep-21 22:00N 46°16' W 124°03'3 6.7
2017-Sep-21 21:30N 46°14' W 123°59'3 6.9
2017-Sep-21 21:00N 46°12' W 123°55'3 4.9
2017-Sep-21 20:29N 46°11' W 123°51'0 0.0
2017-Sep-21 19:59N 46°11' W 123°51'0 0.0
2017-Sep-21 19:29N 46°11' W 123°51'1 1.9
2017-Sep-21 18:59N 46°12' W 123°50'1 1.4
2017-Sep-21 18:00N 46°12' W 123°48'  

Dump ship's entire track history